sensor_id;sensor_type;location;lat;lon;timestamp;pressure;altitude;pressure_sealevel;temperature;humidity
70506;BME280;58032;49.820;6.274;2023-07-08T00:02:13;97673.00;;;16.83;100.00
70506;BME280;58032;49.820;6.274;2023-07-08T00:04:40;97669.16;;;17.07;100.00
70506;BME280;58032;49.820;6.274;2023-07-08T00:07:11;97661.53;;;17.24;100.00
70506;BME280;58032;49.820;6.274;2023-07-08T00:09:39;97660.41;;;17.80;100.00
70506;BME280;58032;49.820;6.274;2023-07-08T00:12:12;97654.09;;;17.97;100.00
70506;BME280;58032;49.820;6.274;2023-07-08T00:14:39;97653.34;;;18.02;100.00
70506;BME280;58032;49.820;6.274;2023-07-08T00:17:11;97646.63;;;18.05;100.00
70506;BME280;58032;49.820;6.274;2023-07-08T00:19:39;97646.16;;;18.12;100.00
70506;BME280;58032;49.820;6.274;2023-07-08T00:22:12;97653.78;;;17.95;100.00
70506;BME280;58032;49.820;6.274;2023-07-08T00:24:42;97645.19;;;17.83;100.00
70506;BME280;58032;49.820;6.274;2023-07-08T00:27:11;97650.69;;;17.93;100.00
70506;BME280;58032;49.820;6.274;2023-07-08T00:29:39;97648.91;;;17.95;100.00
70506;BME280;58032;49.820;6.274;2023-07-08T00:32:14;97647.78;;;17.87;100.00
70506;BME280;58032;49.820;6.274;2023-07-08T00:34:42;97647.84;;;17.93;100.00
70506;BME280;58032;49.820;6.274;2023-07-08T00:37:13;97638.66;;;17.77;100.00
70506;BME280;58032;49.820;6.274;2023-07-08T00:39:40;97640.66;;;17.65;100.00
70506;BME280;58032;49.820;6.274;2023-07-08T00:42:17;97640.50;;;17.48;100.00
70506;BME280;58032;49.820;6.274;2023-07-08T00:44:45;97632.63;;;17.32;100.00
70506;BME280;58032;49.820;6.274;2023-07-08T00:47:14;97633.53;;;17.17;100.00
70506;BME280;58032;49.820;6.274;2023-07-08T00:52:26;97627.66;;;17.27;100.00
70506;BME280;58032;49.820;6.274;2023-07-08T00:55:00;97621.69;;;17.24;100.00
70506;BME280;58032;49.820;6.274;2023-07-08T00:57:33;97619.06;;;17.15;100.00
70506;BME280;58032;49.820;6.274;2023-07-08T01:00:08;97623.72;;;17.18;100.00
70506;BME280;58032;49.820;6.274;2023-07-08T01:02:40;97622.56;;;17.04;100.00
70506;BME280;58032;49.820;6.274;2023-07-08T01:05:12;97612.28;;;16.86;100.00
70506;BME280;58032;49.820;6.274;2023-07-08T01:07:42;97616.59;;;16.76;100.00
70506;BME280;58032;49.820;6.274;2023-07-08T01:10:14;97617.03;;;16.69;100.00
70506;BME280;58032;49.820;6.274;2023-07-08T01:12:46;97622.13;;;16.65;100.00
70506;BME280;58032;49.820;6.274;2023-07-08T01:15:15;97615.78;;;16.75;100.00
70506;BME280;58032;49.820;6.274;2023-07-08T01:17:43;97612.78;;;16.85;100.00
70506;BME280;58032;49.820;6.274;2023-07-08T01:20:11;97612.72;;;16.79;100.00
70506;BME280;58032;49.820;6.274;2023-07-08T01:22:42;97619.03;;;16.63;100.00
70506;BME280;58032;49.820;6.274;2023-07-08T01:25:11;97625.13;;;16.55;100.00
70506;BME280;58032;49.820;6.274;2023-07-08T01:27:47;97621.03;;;16.36;100.00
70506;BME280;58032;49.820;6.274;2023-07-08T01:30:16;97615.78;;;16.28;100.00
70506;BME280;58032;49.820;6.274;2023-07-08T01:32:49;97615.63;;;16.17;100.00
70506;BME280;58032;49.820;6.274;2023-07-08T01:35:18;97621.69;;;16.04;100.00
70506;BME280;58032;49.820;6.274;2023-07-08T01:37:54;97614.03;;;16.10;100.00
70506;BME280;58032;49.820;6.274;2023-07-08T01:40:37;97616.31;;;16.27;100.00
70506;BME280;58032;49.820;6.274;2023-07-08T01:43:05;97616.94;;;16.37;100.00
70506;BME280;58032;49.820;6.274;2023-07-08T01:45:37;97615.50;;;16.26;100.00
70506;BME280;58032;49.820;6.274;2023-07-08T01:48:11;97612.59;;;16.00;100.00
70506;BME280;58032;49.820;6.274;2023-07-08T01:50:42;97604.91;;;15.86;100.00
70506;BME280;58032;49.820;6.274;2023-07-08T01:53:16;97602.59;;;15.84;100.00
70506;BME280;58032;49.820;6.274;2023-07-08T01:55:43;97601.34;;;15.91;100.00
70506;BME280;58032;49.820;6.274;2023-07-08T01:58:10;97612.16;;;15.87;100.00
70506;BME280;58032;49.820;6.274;2023-07-08T02:00:37;97606.44;;;15.66;100.00
70506;BME280;58032;49.820;6.274;2023-07-08T02:03:04;97604.22;;;15.55;100.00
70506;BME280;58032;49.820;6.274;2023-07-08T02:05:31;97606.03;;;15.58;100.00
70506;BME280;58032;49.820;6.274;2023-07-08T02:07:58;97604.75;;;15.74;100.00
70506;BME280;58032;49.820;6.274;2023-07-08T02:10:25;97613.22;;;15.89;100.00
70506;BME280;58032;49.820;6.274;2023-07-08T02:12:52;97609.53;;;16.04;100.00
70506;BME280;58032;49.820;6.274;2023-07-08T02:15:19;97607.53;;;15.89;100.00
70506;BME280;58032;49.820;6.274;2023-07-08T02:17:46;97615.16;;;15.62;100.00
70506;BME280;58032;49.820;6.274;2023-07-08T02:20:13;97616.13;;;15.59;100.00
70506;BME280;58032;49.820;6.274;2023-07-08T02:22:40;97614.84;;;15.60;100.00
70506;BME280;58032;49.820;6.274;2023-07-08T02:25:07;97615.94;;;15.48;100.00
70506;BME280;58032;49.820;6.274;2023-07-08T02:27:37;97623.63;;;15.27;100.00
70506;BME280;58032;49.820;6.274;2023-07-08T02:30:05;97621.59;;;15.12;100.00
70506;BME280;58032;49.820;6.274;2023-07-08T02:32:33;97615.81;;;15.07;100.00
70506;BME280;58032;49.820;6.274;2023-07-08T02:35:02;97619.34;;;15.01;100.00
70506;BME280;58032;49.820;6.274;2023-07-08T02:37:29;97622.38;;;14.98;100.00
70506;BME280;58032;49.820;6.274;2023-07-08T02:39:56;97620.50;;;14.95;100.00
70506;BME280;58032;49.820;6.274;2023-07-08T02:42:23;97624.72;;;14.99;100.00
70506;BME280;58032;49.820;6.274;2023-07-08T02:44:50;97621.69;;;15.03;100.00
70506;BME280;58032;49.820;6.274;2023-07-08T02:47:17;97625.38;;;14.94;100.00
70506;BME280;58032;49.820;6.274;2023-07-08T02:49:44;97624.69;;;14.84;100.00
70506;BME280;58032;49.820;6.274;2023-07-08T02:52:12;97626.47;;;14.82;100.00
70506;BME280;58032;49.820;6.274;2023-07-08T02:54:39;97626.28;;;14.85;100.00
70506;BME280;58032;49.820;6.274;2023-07-08T02:57:06;97622.75;;;14.91;100.00
70506;BME280;58032;49.820;6.274;2023-07-08T02:59:33;97629.50;;;14.93;100.00
70506;BME280;58032;49.820;6.274;2023-07-08T03:02:00;97631.84;;;14.95;100.00
70506;BME280;58032;49.820;6.274;2023-07-08T03:04:27;97631.66;;;14.98;100.00
70506;BME280;58032;49.820;6.274;2023-07-08T03:06:54;97635.00;;;14.97;100.00
70506;BME280;58032;49.820;6.274;2023-07-08T03:09:21;97631.66;;;14.98;100.00
70506;BME280;58032;49.820;6.274;2023-07-08T03:11:48;97632.03;;;15.06;100.00
70506;BME280;58032;49.820;6.274;2023-07-08T03:14:15;97635.47;;;15.10;100.00
70506;BME280;58032;49.820;6.274;2023-07-08T03:16:42;97635.28;;;15.14;100.00
70506;BME280;58032;49.820;6.274;2023-07-08T03:19:11;97629.69;;;15.04;100.00
70506;BME280;58032;49.820;6.274;2023-07-08T03:21:41;97635.47;;;14.95;100.00
70506;BME280;58032;49.820;6.274;2023-07-08T03:24:10;97638.41;;;15.16;100.00
70506;BME280;58032;49.820;6.274;2023-07-08T03:26:44;97636.16;;;15.35;100.00
70506;BME280;58032;49.820;6.274;2023-07-08T03:29:17;97631.44;;;15.47;100.00
70506;BME280;58032;49.820;6.274;2023-07-08T03:31:46;97633.88;;;15.39;100.00
70506;BME280;58032;49.820;6.274;2023-07-08T03:34:15;97632.34;;;15.23;100.00
70506;BME280;58032;49.820;6.274;2023-07-08T03:36:44;97633.59;;;15.22;100.00
70506;BME280;58032;49.820;6.274;2023-07-08T03:39:21;97625.06;;;15.37;100.00
70506;BME280;58032;49.820;6.274;2023-07-08T03:41:50;97629.06;;;15.60;100.00
70506;BME280;58032;49.820;6.274;2023-07-08T03:44:18;97629.69;;;15.70;100.00
70506;BME280;58032;49.820;6.274;2023-07-08T03:46:47;97643.69;;;15.74;100.00
70506;BME280;58032;49.820;6.274;2023-07-08T03:49:20;97646.63;;;15.79;100.00
70506;BME280;58032;49.820;6.274;2023-07-08T03:51:52;97650.09;;;16.04;100.00
70506;BME280;58032;49.820;6.274;2023-07-08T03:54:24;97654.09;;;16.12;100.00
70506;BME280;58032;49.820;6.274;2023-07-08T03:56:54;97645.06;;;16.35;100.00
70506;BME280;58032;49.820;6.274;2023-07-08T03:59:24;97629.72;;;16.47;100.00
70506;BME280;58032;49.820;6.274;2023-07-08T04:01:53;97637.59;;;16.17;100.00
70506;BME280;58032;49.820;6.274;2023-07-08T04:04:20;97630.84;;;15.78;100.00
70506;BME280;58032;49.820;6.274;2023-07-08T04:06:46;97620.63;;;15.66;100.00
70506;BME280;58032;49.820;6.274;2023-07-08T04:09:13;97615.00;;;15.72;100.00
70506;BME280;58032;49.820;6.274;2023-07-08T04:11:40;97612.97;;;15.72;100.00
70506;BME280;58032;49.820;6.274;2023-07-08T04:14:09;97617.06;;;15.71;100.00
70506;BME280;58032;49.820;6.274;2023-07-08T04:16:56;97630.09;;;15.78;100.00
70506;BME280;58032;49.820;6.274;2023-07-08T04:19:25;97633.50;;;15.82;100.00
70506;BME280;58032;49.820;6.274;2023-07-08T04:21:53;97635.84;;;15.83;100.00
70506;BME280;58032;49.820;6.274;2023-07-08T04:24:20;97623.81;;;15.89;100.00
70506;BME280;58032;49.820;6.274;2023-07-08T04:26:48;97608.59;;;15.92;100.00
70506;BME280;58032;49.820;6.274;2023-07-08T04:29:17;97614.38;;;16.18;100.00
70506;BME280;58032;49.820;6.274;2023-07-08T04:31:44;97612.53;;;16.15;100.00
70506;BME280;58032;49.820;6.274;2023-07-08T04:34:13;97620.69;;;16.07;100.00
70506;BME280;58032;49.820;6.274;2023-07-08T04:36:40;97619.75;;;15.95;100.00
70506;BME280;58032;49.820;6.274;2023-07-08T04:39:08;97627.72;;;15.91;100.00
70506;BME280;58032;49.820;6.274;2023-07-08T04:41:36;97629.00;;;16.11;100.00
70506;BME280;58032;49.820;6.274;2023-07-08T04:44:08;97625.81;;;17.93;100.00
70506;BME280;58032;49.820;6.274;2023-07-08T04:46:38;97621.56;;;19.72;100.00
70506;BME280;58032;49.820;6.274;2023-07-08T04:49:07;97618.41;;;18.85;100.00
70506;BME280;58032;49.820;6.274;2023-07-08T04:51:37;97624.78;;;18.45;100.00
70506;BME280;58032;49.820;6.274;2023-07-08T04:54:04;97627.75;;;18.13;100.00
70506;BME280;58032;49.820;6.274;2023-07-08T04:56:46;97635.16;;;17.56;100.00
70506;BME280;58032;49.820;6.274;2023-07-08T04:59:15;97649.22;;;17.71;100.00
70506;BME280;58032;49.820;6.274;2023-07-08T05:01:43;97636.22;;;18.02;100.00
70506;BME280;58032;49.820;6.274;2023-07-08T05:04:13;97638.19;;;19.39;100.00
70506;BME280;58032;49.820;6.274;2023-07-08T05:06:41;97636.88;;;19.91;100.00
70506;BME280;58032;49.820;6.274;2023-07-08T05:09:08;97644.78;;;22.88;100.00
70506;BME280;58032;49.820;6.274;2023-07-08T05:11:35;97636.88;;;25.55;99.15
70506;BME280;58032;49.820;6.274;2023-07-08T05:14:04;97642.78;;;26.49;78.57
70506;BME280;58032;49.820;6.274;2023-07-08T05:16:33;97640.91;;;24.15;85.76
70506;BME280;58032;49.820;6.274;2023-07-08T05:19:00;97648.66;;;22.03;100.00
70506;BME280;58032;49.820;6.274;2023-07-08T05:21:29;97643.63;;;22.09;100.00
70506;BME280;58032;49.820;6.274;2023-07-08T05:24:03;97654.59;;;20.60;100.00
70506;BME280;58032;49.820;6.274;2023-07-08T05:26:31;97652.88;;;20.93;100.00
70506;BME280;58032;49.820;6.274;2023-07-08T05:28:58;97654.22;;;21.28;100.00
70506;BME280;58032;49.820;6.274;2023-07-08T05:31:26;97648.44;;;20.45;100.00
70506;BME280;58032;49.820;6.274;2023-07-08T05:34:04;97664.13;;;20.09;100.00
70506;BME280;58032;49.820;6.274;2023-07-08T05:36:31;97658.13;;;20.89;100.00
70506;BME280;58032;49.820;6.274;2023-07-08T05:38:58;97663.25;;;21.38;100.00
70506;BME280;58032;49.820;6.274;2023-07-08T05:41:25;97665.56;;;21.45;100.00
70506;BME280;58032;49.820;6.274;2023-07-08T05:43:52;97659.31;;;21.05;100.00
70506;BME280;58032;49.820;6.274;2023-07-08T05:46:19;97663.88;;;20.78;100.00
70506;BME280;58032;49.820;6.274;2023-07-08T05:48:46;97661.38;;;21.10;100.00
70506;BME280;58032;49.820;6.274;2023-07-08T05:51:14;97662.25;;;20.99;100.00
70506;BME280;58032;49.820;6.274;2023-07-08T05:53:41;97665.13;;;20.94;100.00
70506;BME280;58032;49.820;6.274;2023-07-08T05:56:08;97657.47;;;21.08;100.00
70506;BME280;58032;49.820;6.274;2023-07-08T05:58:35;97651.69;;;21.19;100.00
70506;BME280;58032;49.820;6.274;2023-07-08T06:01:02;97657.41;;;21.19;100.00
70506;BME280;58032;49.820;6.274;2023-07-08T06:03:29;97652.81;;;21.41;100.00
70506;BME280;58032;49.820;6.274;2023-07-08T06:05:56;97654.25;;;21.59;100.00
70506;BME280;58032;49.820;6.274;2023-07-08T06:08:23;97649.59;;;21.86;100.00
70506;BME280;58032;49.820;6.274;2023-07-08T06:10:50;97653.44;;;22.19;100.00
70506;BME280;58032;49.820;6.274;2023-07-08T06:13:18;97662.81;;;22.44;100.00
70506;BME280;58032;49.820;6.274;2023-07-08T06:15:45;97664.81;;;22.50;100.00
70506;BME280;58032;49.820;6.274;2023-07-08T06:18:12;97661.50;;;22.45;100.00
70506;BME280;58032;49.820;6.274;2023-07-08T06:20:39;97663.34;;;23.06;100.00
70506;BME280;58032;49.820;6.274;2023-07-08T06:23:06;97669.28;;;22.70;100.00
70506;BME280;58032;49.820;6.274;2023-07-08T06:25:33;97665.91;;;22.90;100.00
70506;BME280;58032;49.820;6.274;2023-07-08T06:28:00;97671.69;;;22.66;100.00
70506;BME280;58032;49.820;6.274;2023-07-08T06:30:27;97664.72;;;22.99;100.00
70506;BME280;58032;49.820;6.274;2023-07-08T06:32:54;97667.22;;;23.08;100.00
70506;BME280;58032;49.820;6.274;2023-07-08T06:35:21;97668.91;;;22.79;100.00
70506;BME280;58032;49.820;6.274;2023-07-08T06:37:48;97663.94;;;23.37;100.00
70506;BME280;58032;49.820;6.274;2023-07-08T06:40:15;97672.84;;;22.95;100.00
70506;BME280;58032;49.820;6.274;2023-07-08T06:42:45;97683.28;;;23.69;100.00
70506;BME280;58032;49.820;6.274;2023-07-08T06:45:43;97696.59;;;23.85;100.00
70506;BME280;58032;49.820;6.274;2023-07-08T06:48:10;97712.41;;;24.25;100.00
70506;BME280;58032;49.820;6.274;2023-07-08T06:50:38;97706.66;;;24.38;100.00
70506;BME280;58032;49.820;6.274;2023-07-08T06:53:05;97711.97;;;24.34;100.00
70506;BME280;58032;49.820;6.274;2023-07-08T06:55:33;97699.78;;;24.95;100.00
70506;BME280;58032;49.820;6.274;2023-07-08T06:58:01;97697.81;;;24.90;100.00
70506;BME280;58032;49.820;6.274;2023-07-08T07:00:28;97704.91;;;25.37;100.00
70506;BME280;58032;49.820;6.274;2023-07-08T07:02:55;97710.59;;;25.16;100.00
70506;BME280;58032;49.820;6.274;2023-07-08T07:05:21;97704.41;;;25.81;100.00
70506;BME280;58032;49.820;6.274;2023-07-08T07:07:49;97715.66;;;25.36;93.42
70506;BME280;58032;49.820;6.274;2023-07-08T07:10:16;97710.56;;;25.64;90.29
70506;BME280;58032;49.820;6.274;2023-07-08T07:12:43;97708.03;;;25.25;86.62
70506;BME280;58032;49.820;6.274;2023-07-08T07:15:10;97705.00;;;25.44;86.14
70506;BME280;58032;49.820;6.274;2023-07-08T07:17:37;97702.56;;;25.91;86.50
70506;BME280;58032;49.820;6.274;2023-07-08T07:20:05;97701.94;;;26.27;77.35
70506;BME280;58032;49.820;6.274;2023-07-08T07:22:32;97699.47;;;26.10;73.78
70506;BME280;58032;49.820;6.274;2023-07-08T07:25:00;97709.44;;;26.59;74.18
70506;BME280;58032;49.820;6.274;2023-07-08T07:27:27;97699.06;;;26.64;77.30
70506;BME280;58032;49.820;6.274;2023-07-08T07:29:54;97700.50;;;27.15;74.54
70506;BME280;58032;49.820;6.274;2023-07-08T07:32:23;97706.53;;;26.51;72.69
70506;BME280;58032;49.820;6.274;2023-07-08T07:34:51;97714.25;;;26.57;67.44
70506;BME280;58032;49.820;6.274;2023-07-08T07:37:20;97719.00;;;27.12;67.88
70506;BME280;58032;49.820;6.274;2023-07-08T07:39:47;97715.63;;;26.92;67.34
70506;BME280;58032;49.820;6.274;2023-07-08T07:42:16;97708.31;;;27.36;65.21
70506;BME280;58032;49.820;6.274;2023-07-08T07:44:43;97709.53;;;27.71;65.88
70506;BME280;58032;49.820;6.274;2023-07-08T07:47:10;97717.03;;;27.51;65.19
70506;BME280;58032;49.820;6.274;2023-07-08T07:49:38;97718.00;;;27.01;64.70
70506;BME280;58032;49.820;6.274;2023-07-08T07:52:05;97713.50;;;27.37;64.85
70506;BME280;58032;49.820;6.274;2023-07-08T07:54:32;97708.63;;;27.92;63.55
70506;BME280;58032;49.820;6.274;2023-07-08T07:56:59;97706.69;;;28.02;64.51
70506;BME280;58032;49.820;6.274;2023-07-08T07:59:26;97721.41;;;28.12;60.71
70506;BME280;58032;49.820;6.274;2023-07-08T08:01:53;97713.81;;;28.55;60.89
70506;BME280;58032;49.820;6.274;2023-07-08T08:04:20;97705.94;;;28.17;57.24
70506;BME280;58032;49.820;6.274;2023-07-08T08:06:48;97698.81;;;28.18;57.52
70506;BME280;58032;49.820;6.274;2023-07-08T08:09:15;97711.50;;;27.84;54.67
70506;BME280;58032;49.820;6.274;2023-07-08T08:11:42;97699.09;;;28.84;56.04
70506;BME280;58032;49.820;6.274;2023-07-08T08:14:09;97704.94;;;28.53;56.85
70506;BME280;58032;49.820;6.274;2023-07-08T08:16:35;97712.00;;;28.99;56.66
70506;BME280;58032;49.820;6.274;2023-07-08T08:19:03;97713.78;;;29.43;52.61
70506;BME280;58032;49.820;6.274;2023-07-08T08:21:31;97712.38;;;29.03;57.22
70506;BME280;58032;49.820;6.274;2023-07-08T08:23:58;97716.47;;;28.92;54.51
70506;BME280;58032;49.820;6.274;2023-07-08T08:26:27;97715.94;;;29.34;51.62
70506;BME280;58032;49.820;6.274;2023-07-08T08:28:55;97729.25;;;28.73;54.01
70506;BME280;58032;49.820;6.274;2023-07-08T08:31:22;97722.50;;;29.68;52.46
70506;BME280;58032;49.820;6.274;2023-07-08T08:33:51;97733.41;;;29.11;52.90
70506;BME280;58032;49.820;6.274;2023-07-08T08:36:18;97735.72;;;29.61;51.47
70506;BME280;58032;49.820;6.274;2023-07-08T08:38:45;97736.91;;;29.02;52.89
70506;BME280;58032;49.820;6.274;2023-07-08T08:41:19;97739.94;;;30.52;48.93
70506;BME280;58032;49.820;6.274;2023-07-08T08:43:48;97735.78;;;28.89;51.01
70506;BME280;58032;49.820;6.274;2023-07-08T08:51:19;97734.69;;;28.69;55.81
70506;BME280;58032;49.820;6.274;2023-07-08T08:53:47;97732.75;;;29.28;55.81
70506;BME280;58032;49.820;6.274;2023-07-08T08:56:36;97729.97;;;30.12;54.69
70506;BME280;58032;49.820;6.274;2023-07-08T08:59:27;97735.66;;;30.53;50.82
70506;BME280;58032;49.820;6.274;2023-07-08T09:01:59;97732.34;;;30.31;50.68
70506;BME280;58032;49.820;6.274;2023-07-08T09:04:32;97732.22;;;29.63;50.85
70506;BME280;58032;49.820;6.274;2023-07-08T09:07:11;97735.78;;;28.97;54.13
70506;BME280;58032;49.820;6.274;2023-07-08T09:09:55;97730.88;;;29.64;55.01
70506;BME280;58032;49.820;6.274;2023-07-08T09:12:26;97723.47;;;29.71;53.80
70506;BME280;58032;49.820;6.274;2023-07-08T09:14:55;97719.19;;;30.73;52.74
70506;BME280;58032;49.820;6.274;2023-07-08T09:17:29;97720.19;;;31.65;48.13
70506;BME280;58032;49.820;6.274;2023-07-08T09:22:57;97722.16;;;31.80;49.08
70506;BME280;58032;49.820;6.274;2023-07-08T09:25:35;97730.75;;;31.88;47.58
70506;BME280;58032;49.820;6.274;2023-07-08T09:28:05;97719.38;;;30.75;49.95
70506;BME280;58032;49.820;6.274;2023-07-08T09:30:32;97710.81;;;29.50;51.76
70506;BME280;58032;49.820;6.274;2023-07-08T09:33:03;97712.47;;;30.20;55.23
70506;BME280;58032;49.820;6.274;2023-07-08T09:35:45;97721.25;;;30.37;53.65
70506;BME280;58032;49.820;6.274;2023-07-08T09:38:15;97724.91;;;29.95;55.09
70506;BME280;58032;49.820;6.274;2023-07-08T09:40:53;97728.56;;;29.95;54.71
70506;BME280;58032;49.820;6.274;2023-07-08T09:43:49;97731.81;;;28.38;59.45
70506;BME280;58032;49.820;6.274;2023-07-08T09:46:16;97724.06;;;28.72;63.58
70506;BME280;58032;49.820;6.274;2023-07-08T09:48:43;97724.06;;;28.56;66.33
70506;BME280;58032;49.820;6.274;2023-07-08T09:51:10;97723.22;;;28.87;64.14
70506;BME280;58032;49.820;6.274;2023-07-08T09:53:37;97725.44;;;28.40;70.45
70506;BME280;58032;49.820;6.274;2023-07-08T09:56:05;97732.16;;;28.58;70.58
70506;BME280;58032;49.820;6.274;2023-07-08T09:58:39;97733.50;;;28.72;70.03
70506;BME280;58032;49.820;6.274;2023-07-08T10:01:11;97722.28;;;28.84;72.06
70506;BME280;58032;49.820;6.274;2023-07-08T10:03:40;97724.63;;;28.70;75.35
70506;BME280;58032;49.820;6.274;2023-07-08T10:06:26;97735.06;;;28.81;73.12
70506;BME280;58032;49.820;6.274;2023-07-08T10:08:55;97743.56;;;28.48;72.46
70506;BME280;58032;49.820;6.274;2023-07-08T10:11:40;97735.06;;;28.66;81.50
70506;BME280;58032;49.820;6.274;2023-07-08T10:14:27;97735.22;;;28.83;78.18
70506;BME280;58032;49.820;6.274;2023-07-08T10:16:56;97737.97;;;28.58;72.45
70506;BME280;58032;49.820;6.274;2023-07-08T10:19:23;97745.50;;;28.38;70.82
70506;BME280;58032;49.820;6.274;2023-07-08T10:22:02;97737.75;;;28.64;72.11
70506;BME280;58032;49.820;6.274;2023-07-08T10:24:42;97739.31;;;28.80;72.26
70506;BME280;58032;49.820;6.274;2023-07-08T10:35:19;97734.22;;;28.96;69.60
70506;BME280;58032;49.820;6.274;2023-07-08T10:40:48;97736.16;;;29.50;72.16
70506;BME280;58032;49.820;6.274;2023-07-08T10:43:41;97742.63;;;29.66;68.95
70506;BME280;58032;49.820;6.274;2023-07-08T10:57:58;97735.31;;;29.98;67.08
70506;BME280;58032;49.820;6.274;2023-07-08T11:06:29;97723.44;;;30.29;69.37
70506;BME280;58032;49.820;6.274;2023-07-08T11:09:03;97721.59;;;30.41;69.31
70506;BME280;58032;49.820;6.274;2023-07-08T11:11:47;97717.59;;;30.37;63.51
70506;BME280;58032;49.820;6.274;2023-07-08T11:14:24;97723.72;;;30.41;58.87
70506;BME280;58032;49.820;6.274;2023-07-08T11:19:52;97721.16;;;30.70;61.57
70506;BME280;58032;49.820;6.274;2023-07-08T11:22:22;97710.88;;;31.04;60.13
70506;BME280;58032;49.820;6.274;2023-07-08T11:24:51;97710.16;;;31.49;58.52
70506;BME280;58032;49.820;6.274;2023-07-08T11:27:25;97718.75;;;31.29;54.99
70506;BME280;58032;49.820;6.274;2023-07-08T11:29:57;97716.41;;;31.45;52.67
70506;BME280;58032;49.820;6.274;2023-07-08T11:32:27;97714.66;;;31.32;54.99
70506;BME280;58032;49.820;6.274;2023-07-08T11:34:57;97716.53;;;31.65;53.95
70506;BME280;58032;49.820;6.274;2023-07-08T11:37:25;97710.78;;;32.12;50.72
70506;BME280;58032;49.820;6.274;2023-07-08T11:40:20;97711.72;;;32.61;48.01
70506;BME280;58032;49.820;6.274;2023-07-08T11:42:53;97705.47;;;32.94;47.38
70506;BME280;58032;49.820;6.274;2023-07-08T11:45:31;97709.66;;;32.34;49.91
70506;BME280;58032;49.820;6.274;2023-07-08T11:50:37;97709.44;;;33.28;44.37
70506;BME280;58032;49.820;6.274;2023-07-08T11:53:11;97710.38;;;34.02;45.51
70506;BME280;58032;49.820;6.274;2023-07-08T11:55:55;97700.69;;;33.99;43.93
70506;BME280;58032;49.820;6.274;2023-07-08T11:58:28;97706.22;;;34.05;44.14
70506;BME280;58032;49.820;6.274;2023-07-08T12:03:51;97686.38;;;35.22;41.80
70506;BME280;58032;49.820;6.274;2023-07-08T12:08:56;97685.28;;;33.67;44.10
70506;BME280;58032;49.820;6.274;2023-07-08T12:11:34;97693.47;;;34.00;43.70
70506;BME280;58032;49.820;6.274;2023-07-08T12:14:03;97682.50;;;34.42;43.38
70506;BME280;58032;49.820;6.274;2023-07-08T12:16:31;97686.41;;;34.78;40.50
70506;BME280;58032;49.820;6.274;2023-07-08T12:19:00;97689.53;;;33.76;42.88
70506;BME280;58032;49.820;6.274;2023-07-08T12:21:28;97685.56;;;33.71;43.52
70506;BME280;58032;49.820;6.274;2023-07-08T12:23:55;97691.44;;;34.34;43.69
70506;BME280;58032;49.820;6.274;2023-07-08T12:26:22;97683.00;;;34.60;41.82
70506;BME280;58032;49.820;6.274;2023-07-08T12:28:51;97687.41;;;33.67;43.15
70506;BME280;58032;49.820;6.274;2023-07-08T12:31:20;97690.19;;;34.69;45.81
70506;BME280;58032;49.820;6.274;2023-07-08T12:33:48;97687.81;;;35.78;42.05
70506;BME280;58032;49.820;6.274;2023-07-08T12:36:21;97682.22;;;35.82;40.25
70506;BME280;58032;49.820;6.274;2023-07-08T12:38:49;97676.50;;;36.32;41.10
70506;BME280;58032;49.820;6.274;2023-07-08T12:41:20;97674.09;;;36.04;41.03
70506;BME280;58032;49.820;6.274;2023-07-08T12:43:48;97680.88;;;35.49;39.58
70506;BME280;58032;49.820;6.274;2023-07-08T12:46:18;97688.16;;;33.77;43.31
70506;BME280;58032;49.820;6.274;2023-07-08T12:48:46;97687.81;;;33.02;44.03
70506;BME280;58032;49.820;6.274;2023-07-08T12:51:15;97685.34;;;33.99;43.07
70506;BME280;58032;49.820;6.274;2023-07-08T12:53:43;97678.00;;;35.28;39.74
70506;BME280;58032;49.820;6.274;2023-07-08T12:56:10;97670.88;;;35.88;39.86
70506;BME280;58032;49.820;6.274;2023-07-08T12:58:40;97670.06;;;35.18;39.06
70506;BME280;58032;49.820;6.274;2023-07-08T13:01:15;97676.31;;;35.58;39.40
70506;BME280;58032;49.820;6.274;2023-07-08T13:03:45;97676.72;;;34.76;39.36
70506;BME280;58032;49.820;6.274;2023-07-08T13:06:17;97671.06;;;35.45;38.15
70506;BME280;58032;49.820;6.274;2023-07-08T13:08:44;97675.81;;;34.95;41.69
70506;BME280;58032;49.820;6.274;2023-07-08T13:11:15;97668.31;;;34.70;41.00
70506;BME280;58032;49.820;6.274;2023-07-08T13:14:04;97677.69;;;34.47;42.63
70506;BME280;58032;49.820;6.274;2023-07-08T13:16:33;97671.28;;;33.75;43.39
70506;BME280;58032;49.820;6.274;2023-07-08T13:19:02;97675.97;;;33.39;46.29
70506;BME280;58032;49.820;6.274;2023-07-08T13:21:30;97670.63;;;32.77;45.78
70506;BME280;58032;49.820;6.274;2023-07-08T13:23:58;97674.06;;;31.89;48.38
70506;BME280;58032;49.820;6.274;2023-07-08T13:26:29;97678.66;;;31.10;54.02
70506;BME280;58032;49.820;6.274;2023-07-08T13:29:03;97671.31;;;32.28;50.39
70506;BME280;58032;49.820;6.274;2023-07-08T13:31:34;97668.28;;;35.13;42.69
70506;BME280;58032;49.820;6.274;2023-07-08T13:34:19;97673.28;;;35.68;37.08
70506;BME280;58032;49.820;6.274;2023-07-08T13:36:50;97681.53;;;32.86;42.49
70506;BME280;58032;49.820;6.274;2023-07-08T13:39:26;97680.56;;;32.44;44.35
70506;BME280;58032;49.820;6.274;2023-07-08T13:41:56;97672.59;;;33.04;46.33
70506;BME280;58032;49.820;6.274;2023-07-08T13:44:27;97679.50;;;33.28;46.39
70506;BME280;58032;49.820;6.274;2023-07-08T13:46:56;97677.00;;;33.54;44.79
70506;BME280;58032;49.820;6.274;2023-07-08T13:49:40;97678.13;;;34.21;43.87
70506;BME280;58032;49.820;6.274;2023-07-08T13:54:49;97688.69;;;32.56;48.79
70506;BME280;58032;49.820;6.274;2023-07-08T13:57:20;97693.19;;;32.86;52.83
70506;BME280;58032;49.820;6.274;2023-07-08T13:59:47;97693.41;;;32.41;50.77
70506;BME280;58032;49.820;6.274;2023-07-08T14:02:19;97696.22;;;31.75;52.88
70506;BME280;58032;49.820;6.274;2023-07-08T14:04:47;97694.19;;;31.67;53.16